| time (UTC) | temp F | wind direction | speed MPH | gust MPH | rain 1hr in | rain 24hr in | rain mn in | humidity % | barometer mb |
| 20260502091044 | 72 | 131 | 1.0 | 1.0 | 0.00 | 0.00 | 0.00 | 44 | 1017.9 |
| 20260502071036 | 61 | 130 | 4.0 | 4.0 | 0.00 | 0.00 | 0.00 | 58 | 1018.6 |
| 20260502065535 | 59 | 181 | 1.0 | 2.0 | 0.00 | 0.00 | 0.00 | 59 | 1018.6 |
| 20260502064034 | 60 | 197 | 3.0 | 4.0 | 0.00 | 0.00 | 0.00 | 60 | 1018.6 |
| 20260502062533 | 58 | 169 | 4.0 | 6.0 | 0.00 | 0.00 | 0.00 | 59 | 1018.6 |
| 20260502061033 | 57 | 152 | 2.0 | 2.0 | 0.00 | 0.00 | 0.00 | 64 | 1018.6 |
| 20260502055532 | 55 | 142 | 3.0 | 3.0 | 0.00 | 0.00 | 0.00 | 65 | 1018.9 |
| 20260502054031 | 54 | 147 | 3.0 | 6.0 | 0.00 | 0.00 | 0.00 | 65 | 1018.6 |
| 20260502052530 | 53 | 152 | 1.0 | 1.0 | 0.00 | 0.00 | 0.00 | 67 | 1018.6 |
| 20260502051029 | 51 | 182 | 2.0 | 4.0 | 0.00 | 0.00 | 0.00 | 71 | 1018.6 |
| 20260502045528 | 51 | 127 | 0.0 | 0.0 | 0.00 | 0.00 | 0.00 | 72 | 1018.6 |
| 20260502044027 | 50 | 114 | 2.0 | 3.0 | 0.00 | 0.00 | 0.00 | 73 | 1018.6 |
| 20260502042526 | 50 | 130 | 1.0 | 1.0 | 0.00 | 0.00 | 0.00 | 73 | 1018.6 |
| 20260502041025 | 50 | 202 | 0.0 | 0.0 | 0.00 | 0.00 | 0.00 | 73 | 1018.6 |
| 20260502035524 | 50 | 153 | 1.0 | 1.0 | 0.00 | 0.00 | 0.00 | 72 | 1018.6 |
| 20260502034023 | 50 | 317 | 0.0 | 1.0 | 0.00 | 0.00 | 0.00 | 72 | 1018.6 |
| 20260502032523 | 51 | 142 | 1.0 | 2.0 | 0.00 | 0.00 | 0.00 | 73 | 1018.9 |
| 20260502031022 | 51 | 154 | 2.0 | 2.0 | 0.00 | 0.00 | 0.00 | 71 | 1018.9 |
| 20260502025521 | 51 | 125 | 0.0 | 0.0 | 0.00 | 0.00 | 0.00 | 70 | 1018.9 |
| 20260502024021 | 51 | 164 | 0.0 | 0.0 | 0.00 | 0.00 | 0.00 | 72 | 1018.9 |
| 20260502022520 | 50 | 144 | 0.0 | 0.0 | 0.00 | 0.00 | 0.00 | 75 | 1019.3 |
| 20260502021019 | 49 | 143 | 0.0 | 0.0 | 0.00 | 0.00 | 0.00 | 75 | 1018.9 |
| 20260502015519 | 50 | 27 | 0.0 | 0.0 | 0.00 | 0.00 | 0.00 | 73 | 1019.3 |
| 20260502014018 | 51 | 90 | 0.0 | 0.0 | 0.00 | 0.00 | 0.00 | 71 | 1019.3 |
| 20260502012517 | 51 | 59 | 0.0 | 0.0 | 0.00 | 0.00 | 0.00 | 71 | 1019.3 |
| 20260502011016 | 52 | 120 | 0.0 | 0.0 | 0.00 | 0.00 | 0.00 | 70 | 1019.6 |
| 20260502005515 | 52 | 58 | 0.0 | 0.0 | 0.00 | 0.00 | 0.00 | 69 | 1019.6 |
| 20260502004014 | 52 | 148 | 0.0 | 0.0 | 0.00 | 0.00 | 0.00 | 69 | 1020.0 |
| 20260502002513 | 52 | 143 | 0.0 | 0.0 | 0.00 | 0.00 | 0.00 | 70 | 1020.0 |
| 20260502001013 | 52 | 116 | 0.0 | 0.0 | 0.00 | 0.00 | 0.00 | 70 | 1020.0 |
| 20260501235512 | 53 | 130 | 0.0 | 1.0 | 0.00 | 0.00 | 0.00 | 68 | 1020.0 |
| 20260501234011 | 53 | 126 | 0.0 | 0.0 | 0.00 | 0.00 | 0.00 | 68 | 1020.3 |
| 20260501232511 | 53 | 138 | 1.0 | 1.0 | 0.00 | 0.00 | 0.00 | 68 | 1020.6 |
| 20260501231010 | 52 | 92 | 0.0 | 0.0 | 0.00 | 0.00 | 0.00 | 69 | 1020.6 |
| 20260501225509 | 52 | 63 | 0.0 | 0.0 | 0.00 | 0.00 | 0.00 | 70 | 1020.6 |
| 20260501224008 | 52 | 57 | 0.0 | 0.0 | 0.00 | 0.00 | 0.00 | 70 | 1020.6 |
| 20260501222507 | 52 | 53 | 0.0 | 0.0 | 0.00 | 0.00 | 0.00 | 71 | 1020.6 |
| 20260501221006 | 52 | 49 | 0.0 | 0.0 | 0.00 | 0.00 | 0.00 | 68 | 1020.6 |
| 20260501215506 | 53 | 39 | 0.0 | 0.0 | 0.00 | 0.00 | 0.00 | 67 | 1020.6 |
| 20260501214004 | 54 | 23 | 0.0 | 0.0 | 0.00 | 0.00 | 0.00 | 67 | 1020.6 |
| 20260501212504 | 54 | 23 | 0.0 | 0.0 | 0.00 | 0.00 | 0.00 | 66 | 1020.6 |
| 20260501211002 | 55 | 22 | 0.0 | 0.0 | 0.00 | 0.00 | 0.00 | 64 | 1020.6 |
| 20260501205501 | 56 | 29 | 0.0 | 0.0 | 0.00 | 0.00 | 0.00 | 64 | 1020.6 |
| 20260501204000 | 57 | 32 | 0.0 | 0.0 | 0.00 | 0.00 | 0.00 | 62 | 1020.6 |
| 20260501202459 | 57 | 35 | 0.0 | 0.0 | 0.00 | 0.00 | 0.00 | 59 | 1020.6 |
| 20260501200958 | 58 | 28 | 0.0 | 0.0 | 0.00 | 0.00 | 0.00 | 56 | 1020.6 |
| 20260501195457 | 60 | 108 | 0.0 | 0.0 | 0.00 | 0.00 | 0.00 | 53 | 1020.6 |
| 20260501193956 | 63 | 106 | 0.0 | 0.0 | 0.00 | 0.00 | 0.00 | 47 | 1020.6 |
| 20260501192455 | 62 | 123 | 0.0 | 0.0 | 0.00 | 0.00 | 0.00 | 47 | 1020.6 |
| 20260501190954 | 63 | 88 | 0.0 | 0.0 | 0.00 | 0.00 | 0.00 | 49 | 1020.6 |
| 20260501185453 | 65 | 90 | 0.0 | 0.0 | 0.00 | 0.00 | 0.00 | 44 | 1020.6 |
| 20260501183952 | 66 | 128 | 0.0 | 0.0 | 0.00 | 0.00 | 0.00 | 44 | 1020.6 |
| 20260501182451 | 69 | 123 | 0.0 | 0.0 | 0.00 | 0.00 | 0.00 | 38 | 1020.3 |
| 20260501180950 | 70 | 137 | 0.0 | 1.0 | 0.00 | 0.00 | 0.00 | 36 | 1020.6 |
| 20260501175450 | 71 | 142 | 1.0 | 1.0 | 0.00 | 0.00 | 0.00 | 34 | 1020.6 |
| 20260501173949 | 72 | 136 | 0.0 | 0.0 | 0.00 | 0.00 | 0.00 | 34 | 1020.3 |
| 20260501172448 | 72 | 161 | 4.0 | 4.0 | 0.00 | 0.00 | 0.00 | 32 | 1020.3 |
| 20260501170947 | 73 | 279 | 2.0 | 2.0 | 0.00 | 0.00 | 0.00 | 32 | 1020.6 |
| 20260501165446 | 74 | 160 | 2.0 | 2.0 | 0.00 | 0.00 | 0.00 | 30 | 1020.3 |
| 20260501163945 | 73 | 234 | 4.0 | 4.0 | 0.00 | 0.00 | 0.00 | 31 | 1020.6 |
| 20260501162444 | 74 | 265 | 2.0 | 3.0 | 0.00 | 0.00 | 0.00 | 30 | 1020.6 |
| 20260501160943 | 75 | 218 | 4.0 | 6.0 | 0.00 | 0.00 | 0.00 | 30 | 1020.6 |
| 20260501155442 | 75 | 156 | 4.0 | 7.0 | 0.00 | 0.00 | 0.00 | 29 | 1020.6 |
| 20260501153941 | 75 | 168 | 3.0 | 6.0 | 0.00 | 0.00 | 0.00 | 28 | 1021.0 |
| 20260501152439 | 76 | 155 | 2.0 | 2.0 | 0.00 | 0.00 | 0.00 | 30 | 1021.0 |
| 20260501150939 | 77 | 41 | 0.0 | 1.0 | 0.00 | 0.00 | 0.00 | 28 | 1021.3 |